sensor_id;sensor_type;location;lat;lon;timestamp;temperature;humidity
23079;DHT22;11707;50.830;4.364;2023-05-20T00:01:39;14.40;92.10
23079;DHT22;11707;50.830;4.364;2023-05-20T00:04:07;14.50;1.00
23079;DHT22;11707;50.830;4.364;2023-05-20T00:06:33;14.40;1.00
23079;DHT22;11707;50.830;4.364;2023-05-20T00:08:59;14.30;1.00
23079;DHT22;11707;50.830;4.364;2023-05-20T00:11:25;14.30;1.00
23079;DHT22;11707;50.830;4.364;2023-05-20T00:13:53;14.30;1.00
23079;DHT22;11707;50.830;4.364;2023-05-20T00:16:18;14.30;1.00
23079;DHT22;11707;50.830;4.364;2023-05-20T00:18:44;14.30;1.00
23079;DHT22;11707;50.830;4.364;2023-05-20T00:21:10;14.20;8.10
23079;DHT22;11707;50.830;4.364;2023-05-20T00:23:35;14.30;1.00
23079;DHT22;11707;50.830;4.364;2023-05-20T00:26:03;14.30;1.00
23079;DHT22;11707;50.830;4.364;2023-05-20T00:28:29;14.30;1.00
23079;DHT22;11707;50.830;4.364;2023-05-20T00:30:55;14.30;1.00
23079;DHT22;11707;50.830;4.364;2023-05-20T00:33:20;14.20;99.90
23079;DHT22;11707;50.830;4.364;2023-05-20T00:35:46;14.20;99.90
23079;DHT22;11707;50.830;4.364;2023-05-20T00:38:12;14.00;99.90
23079;DHT22;11707;50.830;4.364;2023-05-20T00:40:40;14.10;99.90
23079;DHT22;11707;50.830;4.364;2023-05-20T00:43:05;14.00;1.00
23079;DHT22;11707;50.830;4.364;2023-05-20T00:45:34;13.90;1.00
23079;DHT22;11707;50.830;4.364;2023-05-20T00:48:01;13.80;53.60
23079;DHT22;11707;50.830;4.364;2023-05-20T00:50:28;13.70;99.90
23079;DHT22;11707;50.830;4.364;2023-05-20T00:52:54;13.70;99.90
23079;DHT22;11707;50.830;4.364;2023-05-20T00:55:20;13.70;99.90
23079;DHT22;11707;50.830;4.364;2023-05-20T00:57:48;13.70;99.90
23079;DHT22;11707;50.830;4.364;2023-05-20T01:00:14;13.60;99.90
23079;DHT22;11707;50.830;4.364;2023-05-20T01:02:42;13.60;99.90
23079;DHT22;11707;50.830;4.364;2023-05-20T01:05:08;13.60;99.90
23079;DHT22;11707;50.830;4.364;2023-05-20T01:07:34;13.50;99.90
23079;DHT22;11707;50.830;4.364;2023-05-20T01:10:00;13.50;99.90
23079;DHT22;11707;50.830;4.364;2023-05-20T01:12:29;13.50;99.90
23079;DHT22;11707;50.830;4.364;2023-05-20T01:15:23;13.40;99.90
23079;DHT22;11707;50.830;4.364;2023-05-20T01:17:56;13.40;99.90
23079;DHT22;11707;50.830;4.364;2023-05-20T01:20:27;13.30;99.90
23079;DHT22;11707;50.830;4.364;2023-05-20T01:22:56;13.30;99.90
23079;DHT22;11707;50.830;4.364;2023-05-20T01:25:23;13.30;99.90
23079;DHT22;11707;50.830;4.364;2023-05-20T01:27:53;13.30;99.90
23079;DHT22;11707;50.830;4.364;2023-05-20T01:30:21;13.40;99.90
23079;DHT22;11707;50.830;4.364;2023-05-20T01:32:53;13.40;99.90
23079;DHT22;11707;50.830;4.364;2023-05-20T01:35:20;13.30;99.90
23079;DHT22;11707;50.830;4.364;2023-05-20T01:37:47;13.20;99.90
23079;DHT22;11707;50.830;4.364;2023-05-20T01:40:18;13.20;99.90
23079;DHT22;11707;50.830;4.364;2023-05-20T01:42:44;13.20;99.90
23079;DHT22;11707;50.830;4.364;2023-05-20T01:45:13;13.30;99.90
23079;DHT22;11707;50.830;4.364;2023-05-20T01:47:38;13.20;99.90
23079;DHT22;11707;50.830;4.364;2023-05-20T01:50:05;13.20;99.90
23079;DHT22;11707;50.830;4.364;2023-05-20T01:52:32;13.20;99.90
23079;DHT22;11707;50.830;4.364;2023-05-20T01:54:58;13.10;99.90
23079;DHT22;11707;50.830;4.364;2023-05-20T01:57:24;13.20;99.90
23079;DHT22;11707;50.830;4.364;2023-05-20T01:59:50;13.10;99.90
23079;DHT22;11707;50.830;4.364;2023-05-20T02:02:16;13.20;99.90
23079;DHT22;11707;50.830;4.364;2023-05-20T02:04:43;13.10;99.90
23079;DHT22;11707;50.830;4.364;2023-05-20T02:07:15;13.00;99.90
23079;DHT22;11707;50.830;4.364;2023-05-20T02:09:43;12.80;99.90
23079;DHT22;11707;50.830;4.364;2023-05-20T02:12:09;12.80;99.90
23079;DHT22;11707;50.830;4.364;2023-05-20T02:14:41;12.80;99.90
23079;DHT22;11707;50.830;4.364;2023-05-20T02:17:07;12.70;99.90
23079;DHT22;11707;50.830;4.364;2023-05-20T02:19:36;12.60;99.90
23079;DHT22;11707;50.830;4.364;2023-05-20T02:22:01;12.60;99.90
23079;DHT22;11707;50.830;4.364;2023-05-20T02:24:32;12.60;99.90
23079;DHT22;11707;50.830;4.364;2023-05-20T02:26:58;12.60;99.90
23079;DHT22;11707;50.830;4.364;2023-05-20T02:29:24;12.60;99.90
23079;DHT22;11707;50.830;4.364;2023-05-20T02:31:52;12.70;99.90
23079;DHT22;11707;50.830;4.364;2023-05-20T02:34:19;12.70;99.90
23079;DHT22;11707;50.830;4.364;2023-05-20T02:36:45;12.70;99.90
23079;DHT22;11707;50.830;4.364;2023-05-20T02:39:11;12.60;99.90
23079;DHT22;11707;50.830;4.364;2023-05-20T02:41:37;12.60;99.90
23079;DHT22;11707;50.830;4.364;2023-05-20T02:44:02;12.60;99.90
23079;DHT22;11707;50.830;4.364;2023-05-20T02:46:30;12.50;99.90
23079;DHT22;11707;50.830;4.364;2023-05-20T02:48:56;12.50;99.90
23079;DHT22;11707;50.830;4.364;2023-05-20T02:51:22;12.50;99.90
23079;DHT22;11707;50.830;4.364;2023-05-20T02:53:48;12.50;99.90
23079;DHT22;11707;50.830;4.364;2023-05-20T02:56:14;12.50;99.90
23079;DHT22;11707;50.830;4.364;2023-05-20T02:58:42;12.40;99.90
23079;DHT22;11707;50.830;4.364;2023-05-20T03:01:08;12.50;99.90
23079;DHT22;11707;50.830;4.364;2023-05-20T03:03:36;12.30;1.00
23079;DHT22;11707;50.830;4.364;2023-05-20T03:06:02;12.30;1.00
23079;DHT22;11707;50.830;4.364;2023-05-20T03:08:28;12.30;1.00
23079;DHT22;11707;50.830;4.364;2023-05-20T03:10:54;12.30;1.00
23079;DHT22;11707;50.830;4.364;2023-05-20T03:13:19;12.30;1.00
23079;DHT22;11707;50.830;4.364;2023-05-20T03:15:45;12.30;1.00
23079;DHT22;11707;50.830;4.364;2023-05-20T03:18:11;12.30;1.00
23079;DHT22;11707;50.830;4.364;2023-05-20T03:20:39;12.20;1.00
23079;DHT22;11707;50.830;4.364;2023-05-20T03:23:08;12.20;1.00
23079;DHT22;11707;50.830;4.364;2023-05-20T03:25:35;12.20;1.00
23079;DHT22;11707;50.830;4.364;2023-05-20T03:28:00;12.30;1.00
23079;DHT22;11707;50.830;4.364;2023-05-20T03:30:27;12.30;1.00
23079;DHT22;11707;50.830;4.364;2023-05-20T03:32:55;12.40;1.00
23079;DHT22;11707;50.830;4.364;2023-05-20T03:35:24;12.20;1.00
23079;DHT22;11707;50.830;4.364;2023-05-20T03:37:50;12.20;1.00
23079;DHT22;11707;50.830;4.364;2023-05-20T03:40:18;12.10;1.00
23079;DHT22;11707;50.830;4.364;2023-05-20T03:42:46;12.20;1.00
23079;DHT22;11707;50.830;4.364;2023-05-20T03:45:11;12.10;1.00
23079;DHT22;11707;50.830;4.364;2023-05-20T03:47:37;12.00;1.00
23079;DHT22;11707;50.830;4.364;2023-05-20T03:50:03;12.10;1.00
23079;DHT22;11707;50.830;4.364;2023-05-20T03:52:30;12.00;1.00
23079;DHT22;11707;50.830;4.364;2023-05-20T03:54:59;12.00;1.00
23079;DHT22;11707;50.830;4.364;2023-05-20T03:57:25;12.00;1.00
23079;DHT22;11707;50.830;4.364;2023-05-20T03:59:50;12.00;1.00
23079;DHT22;11707;50.830;4.364;2023-05-20T04:02:16;12.00;1.00
23079;DHT22;11707;50.830;4.364;2023-05-20T04:04:42;12.00;1.00
23079;DHT22;11707;50.830;4.364;2023-05-20T04:07:10;12.10;1.00
23079;DHT22;11707;50.830;4.364;2023-05-20T04:09:37;12.00;1.00
23079;DHT22;11707;50.830;4.364;2023-05-20T04:12:04;12.00;1.00
23079;DHT22;11707;50.830;4.364;2023-05-20T04:14:30;11.90;1.00
23079;DHT22;11707;50.830;4.364;2023-05-20T04:17:00;11.90;1.00
23079;DHT22;11707;50.830;4.364;2023-05-20T04:19:25;11.90;1.00
23079;DHT22;11707;50.830;4.364;2023-05-20T04:21:55;11.90;1.00
23079;DHT22;11707;50.830;4.364;2023-05-20T04:24:20;12.00;1.00
23079;DHT22;11707;50.830;4.364;2023-05-20T04:26:50;12.00;1.00
23079;DHT22;11707;50.830;4.364;2023-05-20T04:29:16;12.10;1.00
23079;DHT22;11707;50.830;4.364;2023-05-20T04:31:46;12.10;1.00
23079;DHT22;11707;50.830;4.364;2023-05-20T04:34:13;12.10;1.00
23079;DHT22;11707;50.830;4.364;2023-05-20T04:36:38;12.00;1.00
23079;DHT22;11707;50.830;4.364;2023-05-20T04:39:07;12.00;1.00
23079;DHT22;11707;50.830;4.364;2023-05-20T04:41:35;12.00;1.00
23079;DHT22;11707;50.830;4.364;2023-05-20T04:44:01;11.80;1.00
23079;DHT22;11707;50.830;4.364;2023-05-20T04:46:28;11.90;1.00
23079;DHT22;11707;50.830;4.364;2023-05-20T04:48:54;12.00;1.00
23079;DHT22;11707;50.830;4.364;2023-05-20T04:51:19;12.00;1.00
23079;DHT22;11707;50.830;4.364;2023-05-20T04:53:45;12.00;1.00
23079;DHT22;11707;50.830;4.364;2023-05-20T04:56:11;12.10;1.00
23079;DHT22;11707;50.830;4.364;2023-05-20T04:58:37;12.10;1.00
23079;DHT22;11707;50.830;4.364;2023-05-20T05:01:04;12.10;1.00
23079;DHT22;11707;50.830;4.364;2023-05-20T05:03:30;12.00;1.00
23079;DHT22;11707;50.830;4.364;2023-05-20T05:05:56;12.10;1.00
23079;DHT22;11707;50.830;4.364;2023-05-20T05:08:24;12.20;1.00
23079;DHT22;11707;50.830;4.364;2023-05-20T05:10:51;12.10;1.00
23079;DHT22;11707;50.830;4.364;2023-05-20T05:13:17;12.10;1.00
23079;DHT22;11707;50.830;4.364;2023-05-20T05:15:42;12.30;1.00
23079;DHT22;11707;50.830;4.364;2023-05-20T05:18:08;12.30;1.00
23079;DHT22;11707;50.830;4.364;2023-05-20T05:20:36;12.30;1.00
23079;DHT22;11707;50.830;4.364;2023-05-20T05:23:02;12.40;1.00
23079;DHT22;11707;50.830;4.364;2023-05-20T05:25:28;12.40;1.00
23079;DHT22;11707;50.830;4.364;2023-05-20T05:27:56;12.50;1.00
23079;DHT22;11707;50.830;4.364;2023-05-20T05:30:22;12.50;1.00
23079;DHT22;11707;50.830;4.364;2023-05-20T05:32:50;12.60;1.00
23079;DHT22;11707;50.830;4.364;2023-05-20T05:35:16;12.70;1.00
23079;DHT22;11707;50.830;4.364;2023-05-20T05:37:41;12.60;1.00
23079;DHT22;11707;50.830;4.364;2023-05-20T05:40:08;12.60;1.00
23079;DHT22;11707;50.830;4.364;2023-05-20T05:42:33;12.70;1.00
23079;DHT22;11707;50.830;4.364;2023-05-20T05:44:59;12.70;1.00
23079;DHT22;11707;50.830;4.364;2023-05-20T05:47:27;12.80;1.00
23079;DHT22;11707;50.830;4.364;2023-05-20T05:49:57;12.80;1.00
23079;DHT22;11707;50.830;4.364;2023-05-20T05:52:23;12.80;1.00
23079;DHT22;11707;50.830;4.364;2023-05-20T05:54:50;12.90;1.00
23079;DHT22;11707;50.830;4.364;2023-05-20T05:57:16;13.10;1.00
23079;DHT22;11707;50.830;4.364;2023-05-20T05:59:42;13.10;1.00
23079;DHT22;11707;50.830;4.364;2023-05-20T06:02:08;13.20;1.00
23079;DHT22;11707;50.830;4.364;2023-05-20T06:04:37;13.30;1.00
23079;DHT22;11707;50.830;4.364;2023-05-20T06:07:03;13.30;1.00
23079;DHT22;11707;50.830;4.364;2023-05-20T06:09:28;13.40;1.00
23079;DHT22;11707;50.830;4.364;2023-05-20T06:11:54;13.40;1.00
23079;DHT22;11707;50.830;4.364;2023-05-20T06:14:20;13.50;1.00
23079;DHT22;11707;50.830;4.364;2023-05-20T06:16:47;13.50;1.00
23079;DHT22;11707;50.830;4.364;2023-05-20T06:19:13;13.50;1.00
23079;DHT22;11707;50.830;4.364;2023-05-20T06:21:39;13.60;1.00
23079;DHT22;11707;50.830;4.364;2023-05-20T06:24:07;13.70;1.00
23079;DHT22;11707;50.830;4.364;2023-05-20T06:26:33;13.80;1.00
23079;DHT22;11707;50.830;4.364;2023-05-20T06:29:01;13.90;1.00
23079;DHT22;11707;50.830;4.364;2023-05-20T06:31:29;13.90;1.00
23079;DHT22;11707;50.830;4.364;2023-05-20T06:33:55;14.00;1.00
23079;DHT22;11707;50.830;4.364;2023-05-20T06:36:21;14.10;99.90
23079;DHT22;11707;50.830;4.364;2023-05-20T06:38:47;14.10;99.90
23079;DHT22;11707;50.830;4.364;2023-05-20T06:41:12;14.20;99.90
23079;DHT22;11707;50.830;4.364;2023-05-20T06:43:38;14.20;99.90
23079;DHT22;11707;50.830;4.364;2023-05-20T06:46:05;14.20;99.90
23079;DHT22;11707;50.830;4.364;2023-05-20T06:48:31;14.30;99.90
23079;DHT22;11707;50.830;4.364;2023-05-20T06:50:57;14.50;99.90
23079;DHT22;11707;50.830;4.364;2023-05-20T06:53:22;14.40;99.90
23079;DHT22;11707;50.830;4.364;2023-05-20T06:55:48;14.50;99.90
23079;DHT22;11707;50.830;4.364;2023-05-20T06:58:14;14.60;99.90
23079;DHT22;11707;50.830;4.364;2023-05-20T07:00:39;14.60;99.90
23079;DHT22;11707;50.830;4.364;2023-05-20T07:03:06;14.60;99.90
23079;DHT22;11707;50.830;4.364;2023-05-20T07:05:31;14.70;99.90
23079;DHT22;11707;50.830;4.364;2023-05-20T07:07:59;14.70;99.90
23079;DHT22;11707;50.830;4.364;2023-05-20T07:10:25;14.80;99.90
23079;DHT22;11707;50.830;4.364;2023-05-20T07:12:51;14.90;99.90
23079;DHT22;11707;50.830;4.364;2023-05-20T07:15:19;15.00;99.90
23079;DHT22;11707;50.830;4.364;2023-05-20T07:17:45;15.00;99.90
23079;DHT22;11707;50.830;4.364;2023-05-20T07:20:10;15.00;99.90
23079;DHT22;11707;50.830;4.364;2023-05-20T07:22:36;15.20;99.90
23079;DHT22;11707;50.830;4.364;2023-05-20T07:25:02;15.30;99.90
23079;DHT22;11707;50.830;4.364;2023-05-20T07:27:30;15.40;99.90
23079;DHT22;11707;50.830;4.364;2023-05-20T07:29:56;15.50;98.00
23079;DHT22;11707;50.830;4.364;2023-05-20T07:32:21;15.60;23.50
23079;DHT22;11707;50.830;4.364;2023-05-20T07:34:47;15.60;1.00
23079;DHT22;11707;50.830;4.364;2023-05-20T07:37:13;15.50;21.90
23079;DHT22;11707;50.830;4.364;2023-05-20T07:39:39;15.70;2.90
23079;DHT22;11707;50.830;4.364;2023-05-20T07:42:04;15.70;6.90
23079;DHT22;11707;50.830;4.364;2023-05-20T07:44:30;15.90;1.50
23079;DHT22;11707;50.830;4.364;2023-05-20T07:46:58;16.00;1.00
23079;DHT22;11707;50.830;4.364;2023-05-20T07:49:26;16.10;1.00
23079;DHT22;11707;50.830;4.364;2023-05-20T07:51:52;16.20;99.90
23079;DHT22;11707;50.830;4.364;2023-05-20T07:54:17;16.40;99.90
23079;DHT22;11707;50.830;4.364;2023-05-20T07:56:43;16.50;99.90
23079;DHT22;11707;50.830;4.364;2023-05-20T07:59:09;16.60;99.90
23079;DHT22;11707;50.830;4.364;2023-05-20T08:01:35;16.70;99.90
23079;DHT22;11707;50.830;4.364;2023-05-20T08:04:03;16.80;1.00
23079;DHT22;11707;50.830;4.364;2023-05-20T08:06:31;16.80;99.90
23079;DHT22;11707;50.830;4.364;2023-05-20T08:09:00;16.80;99.90
23079;DHT22;11707;50.830;4.364;2023-05-20T08:11:28;16.70;99.90
23079;DHT22;11707;50.830;4.364;2023-05-20T08:13:56;16.80;99.90
23079;DHT22;11707;50.830;4.364;2023-05-20T08:16:22;16.90;99.90
23079;DHT22;11707;50.830;4.364;2023-05-20T08:18:50;16.90;99.90
23079;DHT22;11707;50.830;4.364;2023-05-20T08:21:16;17.00;1.00
23079;DHT22;11707;50.830;4.364;2023-05-20T08:23:42;17.10;1.00
23079;DHT22;11707;50.830;4.364;2023-05-20T08:26:10;17.20;99.90
23079;DHT22;11707;50.830;4.364;2023-05-20T08:28:36;17.40;99.90
23079;DHT22;11707;50.830;4.364;2023-05-20T08:31:02;17.30;99.90
23079;DHT22;11707;50.830;4.364;2023-05-20T08:33:28;17.40;1.00
23079;DHT22;11707;50.830;4.364;2023-05-20T08:35:54;17.50;99.90
23079;DHT22;11707;50.830;4.364;2023-05-20T08:38:19;17.50;99.90
23079;DHT22;11707;50.830;4.364;2023-05-20T08:40:50;17.40;1.00
23079;DHT22;11707;50.830;4.364;2023-05-20T08:43:16;17.40;31.20
23079;DHT22;11707;50.830;4.364;2023-05-20T08:45:42;17.60;1.00
23079;DHT22;11707;50.830;4.364;2023-05-20T08:48:07;17.70;99.90
23079;DHT22;11707;50.830;4.364;2023-05-20T08:50:33;17.80;99.90
23079;DHT22;11707;50.830;4.364;2023-05-20T08:52:59;17.80;90.20
23079;DHT22;11707;50.830;4.364;2023-05-20T08:55:32;17.80;99.90
23079;DHT22;11707;50.830;4.364;2023-05-20T08:58:02;17.90;99.90
23079;DHT22;11707;50.830;4.364;2023-05-20T09:00:31;18.00;99.90
23079;DHT22;11707;50.830;4.364;2023-05-20T09:02:58;17.80;22.90
23079;DHT22;11707;50.830;4.364;2023-05-20T09:05:24;17.60;1.00
23079;DHT22;11707;50.830;4.364;2023-05-20T09:07:50;17.60;1.00
23079;DHT22;11707;50.830;4.364;2023-05-20T09:10:16;17.60;99.90
23079;DHT22;11707;50.830;4.364;2023-05-20T09:12:44;17.70;99.90
23079;DHT22;11707;50.830;4.364;2023-05-20T09:15:10;17.50;99.90
23079;DHT22;11707;50.830;4.364;2023-05-20T09:17:36;17.70;99.90
23079;DHT22;11707;50.830;4.364;2023-05-20T09:20:11;17.90;1.00
23079;DHT22;11707;50.830;4.364;2023-05-20T09:22:38;17.90;99.90
23079;DHT22;11707;50.830;4.364;2023-05-20T09:25:04;17.90;99.90
23079;DHT22;11707;50.830;4.364;2023-05-20T09:27:31;18.00;1.00
23079;DHT22;11707;50.830;4.364;2023-05-20T09:29:57;18.00;50.00
23079;DHT22;11707;50.830;4.364;2023-05-20T09:32:22;18.10;1.00
23079;DHT22;11707;50.830;4.364;2023-05-20T09:34:51;18.20;1.00
23079;DHT22;11707;50.830;4.364;2023-05-20T09:37:17;18.30;1.00
23079;DHT22;11707;50.830;4.364;2023-05-20T09:42:21;18.30;99.90
23079;DHT22;11707;50.830;4.364;2023-05-20T09:44:49;18.30;99.90
23079;DHT22;11707;50.830;4.364;2023-05-20T09:47:15;18.40;99.90
23079;DHT22;11707;50.830;4.364;2023-05-20T09:49:42;18.50;99.90
23079;DHT22;11707;50.830;4.364;2023-05-20T09:52:12;18.70;99.90
23079;DHT22;11707;50.830;4.364;2023-05-20T09:54:40;18.40;99.90
23079;DHT22;11707;50.830;4.364;2023-05-20T09:57:07;18.60;78.50
23079;DHT22;11707;50.830;4.364;2023-05-20T09:59:35;18.60;1.00
23079;DHT22;11707;50.830;4.364;2023-05-20T10:02:01;18.50;1.00
23079;DHT22;11707;50.830;4.364;2023-05-20T10:04:28;18.60;1.00
23079;DHT22;11707;50.830;4.364;2023-05-20T10:06:59;18.50;99.90
23079;DHT22;11707;50.830;4.364;2023-05-20T10:09:36;18.60;99.90
23079;DHT22;11707;50.830;4.364;2023-05-20T10:17:38;19.00;99.90
23079;DHT22;11707;50.830;4.364;2023-05-20T10:20:06;19.20;99.90
23079;DHT22;11707;50.830;4.364;2023-05-20T10:22:36;19.20;99.90
23079;DHT22;11707;50.830;4.364;2023-05-20T10:25:10;19.20;99.90
23079;DHT22;11707;50.830;4.364;2023-05-20T10:27:43;19.20;99.90
23079;DHT22;11707;50.830;4.364;2023-05-20T10:30:20;19.30;44.50
23079;DHT22;11707;50.830;4.364;2023-05-20T10:32:54;19.20;37.80
23079;DHT22;11707;50.830;4.364;2023-05-20T10:35:25;19.20;99.90
23079;DHT22;11707;50.830;4.364;2023-05-20T10:37:52;19.20;77.60
23079;DHT22;11707;50.830;4.364;2023-05-20T10:40:22;19.30;10.00
23079;DHT22;11707;50.830;4.364;2023-05-20T10:42:48;19.50;1.00
23079;DHT22;11707;50.830;4.364;2023-05-20T10:45:27;19.40;27.10
23079;DHT22;11707;50.830;4.364;2023-05-20T10:47:57;19.20;7.80
23079;DHT22;11707;50.830;4.364;2023-05-20T10:50:41;19.30;8.10
23079;DHT22;11707;50.830;4.364;2023-05-20T10:53:13;19.30;1.00
23079;DHT22;11707;50.830;4.364;2023-05-20T10:55:45;19.40;58.70
23079;DHT22;11707;50.830;4.364;2023-05-20T10:58:13;19.30;87.50
23079;DHT22;11707;50.830;4.364;2023-05-20T11:00:39;19.40;96.40
23079;DHT22;11707;50.830;4.364;2023-05-20T11:03:05;19.50;66.30
23079;DHT22;11707;50.830;4.364;2023-05-20T11:05:32;19.70;97.40
23079;DHT22;11707;50.830;4.364;2023-05-20T11:08:08;19.60;1.00
23079;DHT22;11707;50.830;4.364;2023-05-20T11:10:37;19.70;1.00
23079;DHT22;11707;50.830;4.364;2023-05-20T11:13:03;20.00;1.00
23079;DHT22;11707;50.830;4.364;2023-05-20T11:15:30;19.90;1.00
23079;DHT22;11707;50.830;4.364;2023-05-20T11:18:01;20.10;1.00
23079;DHT22;11707;50.830;4.364;2023-05-20T11:20:27;20.30;99.90
23079;DHT22;11707;50.830;4.364;2023-05-20T11:22:54;20.40;99.90
23079;DHT22;11707;50.830;4.364;2023-05-20T11:25:22;20.30;99.90
23079;DHT22;11707;50.830;4.364;2023-05-20T11:27:49;20.20;99.90
23079;DHT22;11707;50.830;4.364;2023-05-20T11:30:15;20.30;99.90
23079;DHT22;11707;50.830;4.364;2023-05-20T11:32:59;20.20;99.90
23079;DHT22;11707;50.830;4.364;2023-05-20T11:35:27;19.90;1.00
23079;DHT22;11707;50.830;4.364;2023-05-20T11:38:05;20.10;1.00
23079;DHT22;11707;50.830;4.364;2023-05-20T11:40:32;20.30;99.90
23079;DHT22;11707;50.830;4.364;2023-05-20T11:42:59;20.50;99.90
23079;DHT22;11707;50.830;4.364;2023-05-20T11:45:51;20.70;99.90
23079;DHT22;11707;50.830;4.364;2023-05-20T11:48:18;20.60;99.90
23079;DHT22;11707;50.830;4.364;2023-05-20T11:50:45;20.70;99.90
23079;DHT22;11707;50.830;4.364;2023-05-20T11:53:17;20.80;99.90
23079;DHT22;11707;50.830;4.364;2023-05-20T11:56:03;21.00;99.90
23079;DHT22;11707;50.830;4.364;2023-05-20T11:58:30;21.10;99.90
23079;DHT22;11707;50.830;4.364;2023-05-20T12:00:59;21.10;99.90
23079;DHT22;11707;50.830;4.364;2023-05-20T12:03:25;20.90;99.90
23079;DHT22;11707;50.830;4.364;2023-05-20T12:05:56;20.70;99.90
23079;DHT22;11707;50.830;4.364;2023-05-20T12:08:21;20.70;99.90
23079;DHT22;11707;50.830;4.364;2023-05-20T12:10:47;20.80;99.90
23079;DHT22;11707;50.830;4.364;2023-05-20T12:13:13;20.70;99.90
23079;DHT22;11707;50.830;4.364;2023-05-20T12:15:39;20.90;99.90
23079;DHT22;11707;50.830;4.364;2023-05-20T12:18:05;21.00;99.90
23079;DHT22;11707;50.830;4.364;2023-05-20T12:20:31;21.00;99.90
23079;DHT22;11707;50.830;4.364;2023-05-20T12:23:02;21.10;99.90
23079;DHT22;11707;50.830;4.364;2023-05-20T12:25:28;21.10;99.90
23079;DHT22;11707;50.830;4.364;2023-05-20T12:27:54;21.00;99.90
23079;DHT22;11707;50.830;4.364;2023-05-20T12:30:23;21.20;99.90
23079;DHT22;11707;50.830;4.364;2023-05-20T12:32:50;21.30;99.90
23079;DHT22;11707;50.830;4.364;2023-05-20T12:35:18;21.10;99.90
23079;DHT22;11707;50.830;4.364;2023-05-20T12:37:44;20.70;99.90
23079;DHT22;11707;50.830;4.364;2023-05-20T12:40:10;20.80;99.90
23079;DHT22;11707;50.830;4.364;2023-05-20T12:42:40;20.90;99.90
23079;DHT22;11707;50.830;4.364;2023-05-20T12:45:07;21.30;99.90
23079;DHT22;11707;50.830;4.364;2023-05-20T12:47:37;22.40;90.50
23079;DHT22;11707;50.830;4.364;2023-05-20T12:50:05;23.30;1.00
23079;DHT22;11707;50.830;4.364;2023-05-20T12:52:31;24.10;99.90
23079;DHT22;11707;50.830;4.364;2023-05-20T12:54:57;25.10;99.90
23079;DHT22;11707;50.830;4.364;2023-05-20T12:57:22;25.00;99.90
23079;DHT22;11707;50.830;4.364;2023-05-20T12:59:49;24.10;99.90
23079;DHT22;11707;50.830;4.364;2023-05-20T13:02:15;23.20;99.90
23079;DHT22;11707;50.830;4.364;2023-05-20T13:04:40;23.20;99.90
23079;DHT22;11707;50.830;4.364;2023-05-20T13:07:06;23.60;99.90
23079;DHT22;11707;50.830;4.364;2023-05-20T13:09:32;23.80;99.90
23079;DHT22;11707;50.830;4.364;2023-05-20T13:12:01;24.10;99.90
23079;DHT22;11707;50.830;4.364;2023-05-20T13:14:27;24.90;99.90
23079;DHT22;11707;50.830;4.364;2023-05-20T13:16:55;24.80;50.10
23079;DHT22;11707;50.830;4.364;2023-05-20T13:19:23;24.40;36.60
23079;DHT22;11707;50.830;4.364;2023-05-20T13:21:50;24.30;27.40
23079;DHT22;11707;50.830;4.364;2023-05-20T13:24:16;23.80;80.40
23079;DHT22;11707;50.830;4.364;2023-05-20T13:26:42;24.40;65.50
23079;DHT22;11707;50.830;4.364;2023-05-20T13:29:08;25.60;17.00
23079;DHT22;11707;50.830;4.364;2023-05-20T13:31:34;25.90;1.00
23079;DHT22;11707;50.830;4.364;2023-05-20T13:34:03;25.70;1.00
23079;DHT22;11707;50.830;4.364;2023-05-20T13:36:28;25.90;1.00
23079;DHT22;11707;50.830;4.364;2023-05-20T13:38:54;25.00;1.00
23079;DHT22;11707;50.830;4.364;2023-05-20T13:41:20;24.70;1.00
23079;DHT22;11707;50.830;4.364;2023-05-20T13:43:45;26.00;1.00
23079;DHT22;11707;50.830;4.364;2023-05-20T13:46:11;27.00;1.00
23079;DHT22;11707;50.830;4.364;2023-05-20T13:48:37;26.00;1.00
23079;DHT22;11707;50.830;4.364;2023-05-20T13:51:02;24.90;1.00
23079;DHT22;11707;50.830;4.364;2023-05-20T13:53:28;24.50;1.00
23079;DHT22;11707;50.830;4.364;2023-05-20T13:55:54;25.20;1.00
23079;DHT22;11707;50.830;4.364;2023-05-20T13:58:20;24.50;1.00
23079;DHT22;11707;50.830;4.364;2023-05-20T14:00:47;23.60;1.00
23079;DHT22;11707;50.830;4.364;2023-05-20T14:03:13;23.20;1.00
23079;DHT22;11707;50.830;4.364;2023-05-20T14:05:39;22.90;1.00
23079;DHT22;11707;50.830;4.364;2023-05-20T14:08:05;22.50;14.10
23079;DHT22;11707;50.830;4.364;2023-05-20T14:10:30;22.40;51.10
23079;DHT22;11707;50.830;4.364;2023-05-20T14:12:57;22.30;93.10
23079;DHT22;11707;50.830;4.364;2023-05-20T14:15:23;22.20;99.90
23079;DHT22;11707;50.830;4.364;2023-05-20T14:17:49;22.10;99.90
23079;DHT22;11707;50.830;4.364;2023-05-20T14:20:15;22.00;99.90
23079;DHT22;11707;50.830;4.364;2023-05-20T14:22:41;21.50;99.90
23079;DHT22;11707;50.830;4.364;2023-05-20T14:25:07;21.50;99.90
23079;DHT22;11707;50.830;4.364;2023-05-20T14:27:33;21.60;99.90
23079;DHT22;11707;50.830;4.364;2023-05-20T14:29:59;21.70;99.90
23079;DHT22;11707;50.830;4.364;2023-05-20T14:32:25;21.70;99.90
23079;DHT22;11707;50.830;4.364;2023-05-20T14:34:51;21.70;99.90
23079;DHT22;11707;50.830;4.364;2023-05-20T14:37:18;21.70;99.90
23079;DHT22;11707;50.830;4.364;2023-05-20T14:39:44;21.40;99.90
23079;DHT22;11707;50.830;4.364;2023-05-20T14:42:10;21.30;99.90
23079;DHT22;11707;50.830;4.364;2023-05-20T14:44:36;21.40;99.90
23079;DHT22;11707;50.830;4.364;2023-05-20T14:47:02;21.40;99.90
23079;DHT22;11707;50.830;4.364;2023-05-20T14:49:28;21.30;99.90
23079;DHT22;11707;50.830;4.364;2023-05-20T14:51:54;21.30;1.00
23079;DHT22;11707;50.830;4.364;2023-05-20T14:54:19;21.20;1.00
23079;DHT22;11707;50.830;4.364;2023-05-20T14:56:49;20.90;1.00
23079;DHT22;11707;50.830;4.364;2023-05-20T14:59:16;21.00;8.50
23079;DHT22;11707;50.830;4.364;2023-05-20T15:01:42;21.00;99.90
23079;DHT22;11707;50.830;4.364;2023-05-20T15:04:08;20.70;99.90
23079;DHT22;11707;50.830;4.364;2023-05-20T15:06:33;20.60;99.90
23079;DHT22;11707;50.830;4.364;2023-05-20T15:09:03;20.70;99.90
23079;DHT22;11707;50.830;4.364;2023-05-20T15:11:29;20.80;99.90
23079;DHT22;11707;50.830;4.364;2023-05-20T15:13:55;20.80;99.90
23079;DHT22;11707;50.830;4.364;2023-05-20T15:16:24;20.90;99.90
23079;DHT22;11707;50.830;4.364;2023-05-20T15:18:52;21.10;99.90
23079;DHT22;11707;50.830;4.364;2023-05-20T15:21:21;21.20;99.90
23079;DHT22;11707;50.830;4.364;2023-05-20T15:23:46;21.30;99.20
23079;DHT22;11707;50.830;4.364;2023-05-20T15:26:15;21.30;99.90
23079;DHT22;11707;50.830;4.364;2023-05-20T15:28:40;21.20;94.20
23079;DHT22;11707;50.830;4.364;2023-05-20T15:31:06;21.30;99.90
23079;DHT22;11707;50.830;4.364;2023-05-20T15:33:32;21.20;99.90
23079;DHT22;11707;50.830;4.364;2023-05-20T15:35:58;21.00;99.90
23079;DHT22;11707;50.830;4.364;2023-05-20T15:38:24;21.10;99.90
23079;DHT22;11707;50.830;4.364;2023-05-20T15:40:49;21.40;99.90
23079;DHT22;11707;50.830;4.364;2023-05-20T15:43:16;21.30;90.30
23079;DHT22;11707;50.830;4.364;2023-05-20T15:45:42;21.30;96.50